Time;durP1;ratioP1;P1;durP2;ratioP2;P2;SDS_P1;SDS_P2;PMS_P1;PMS_P2;Temp;Humidity;BMP_temperature;BMP_pressure;BME280_temperature;BME280_humidity;BME280_pressure;Samples;Min_cycle;Max_cycle;Signal;HPM_P1;HPM_P2
2021/09/02 00:00:58;;;;;;;26.95;20.55;;;12.80;99.90;;;;;;2096989;28;20028;-70
2021/09/02 00:02:00;;;;;;;28.02;20.60;;;12.80;99.90;;;;;;2097656;28;20025;-69
2021/09/02 00:03:01;;;;;;;27.20;20.05;;;12.80;99.90;;;;;;2097610;28;20104;-69
2021/09/02 00:04:01;;;;;;;28.92;20.45;;;12.80;99.90;;;;;;2097478;28;20035;-69
2021/09/02 00:05:03;;;;;;;29.65;20.98;;;12.80;99.90;;;;;;2097511;28;20432;-69
2021/09/02 00:06:04;;;;;;;28.08;21.05;;;12.80;99.90;;;;;;2097594;28;20036;-69
2021/09/02 00:07:04;;;;;;;29.85;20.73;;;12.80;99.90;;;;;;2097642;28;20366;-69
2021/09/02 00:08:05;;;;;;;28.73;20.83;;;12.80;99.90;;;;;;2096997;28;20031;-69
2021/09/02 00:09:06;;;;;;;29.05;21.52;;;12.80;99.90;;;;;;2097576;28;20593;-69
2021/09/02 00:10:06;;;;;;;27.50;19.65;;;12.80;99.90;;;;;;2088469;28;20138;-69
2021/09/02 00:11:07;;;;;;;27.08;20.27;;;12.80;99.90;;;;;;2088303;28;20681;-68
2021/09/02 00:12:08;;;;;;;26.35;20.15;;;12.80;99.90;;;;;;2097342;28;20115;-69
2021/09/02 00:13:09;;;;;;;27.17;19.83;;;12.80;99.90;;;;;;2088466;28;20032;-69
2021/09/02 00:14:10;;;;;;;26.40;19.80;;;12.80;99.90;;;;;;2088479;28;20498;-69
2021/09/02 00:15:11;;;;;;;27.40;19.95;;;12.80;99.90;;;;;;2097585;28;20029;-69
2021/09/02 00:16:11;;;;;;;28.98;20.13;;;12.80;99.90;;;;;;2097368;28;20016;-69
2021/09/02 00:17:12;;;;;;;27.42;20.38;;;12.80;99.90;;;;;;2097375;28;20020;-70
2021/09/02 00:18:13;;;;;;;29.08;20.17;;;12.80;99.90;;;;;;2096950;28;20551;-70
2021/09/02 00:19:13;;;;;;;26.27;19.98;;;12.80;99.90;;;;;;2097412;28;20081;-70
2021/09/02 00:20:14;;;;;;;25.77;19.83;;;12.70;99.90;;;;;;2096970;28;20021;-70
2021/09/02 00:21:15;;;;;;;26.83;19.20;;;12.80;99.90;;;;;;2097021;28;20068;-70
2021/09/02 00:22:15;;;;;;;27.50;19.42;;;12.70;99.90;;;;;;2097290;28;20058;-70
2021/09/02 00:23:16;;;;;;;28.27;20.20;;;12.70;99.90;;;;;;2088348;28;20108;-70
2021/09/02 00:24:17;;;;;;;30.10;20.02;;;12.70;99.90;;;;;;2088503;28;20061;-69
2021/09/02 00:25:18;;;;;;;27.55;19.92;;;12.70;99.90;;;;;;2097460;28;20025;-70
2021/09/02 00:26:18;;;;;;;29.75;20.35;;;12.70;99.90;;;;;;2097105;28;20481;-70
2021/09/02 00:27:19;;;;;;;28.08;20.27;;;12.70;99.90;;;;;;2097260;28;20029;-70
2021/09/02 00:28:20;;;;;;;26.50;20.17;;;12.70;99.90;;;;;;2088107;28;20031;-70
2021/09/02 00:29:21;;;;;;;26.08;19.63;;;12.70;99.90;;;;;;2080329;28;20052;-69
2021/09/02 00:30:22;;;;;;;27.67;19.75;;;12.60;99.90;;;;;;2079989;28;20622;-70
2021/09/02 00:31:22;;;;;;;26.40;19.83;;;12.70;99.90;;;;;;2088396;28;20055;-70
2021/09/02 00:32:23;;;;;;;26.20;19.17;;;12.70;99.90;;;;;;2097285;28;20779;-70
2021/09/02 00:33:24;;;;;;;26.50;20.13;;;12.60;99.90;;;;;;2097333;28;20519;-70
2021/09/02 00:34:24;;;;;;;27.92;19.80;;;12.70;99.90;;;;;;2097327;28;20032;-70
2021/09/02 00:35:25;;;;;;;25.90;20.08;;;12.70;99.90;;;;;;2088307;28;20405;-70
2021/09/02 00:36:26;;;;;;;29.88;20.77;;;12.60;99.90;;;;;;2080234;28;20042;-70
2021/09/02 00:37:26;;;;;;;26.65;20.10;;;12.60;99.90;;;;;;2088314;28;20083;-70
2021/09/02 00:38:27;;;;;;;27.67;19.70;;;12.60;99.90;;;;;;2096601;28;20044;-69
2021/09/02 00:39:27;;;;;;;26.48;20.05;;;12.60;99.90;;;;;;2097298;28;20029;-70
2021/09/02 00:40:28;;;;;;;29.92;20.80;;;12.60;99.90;;;;;;2096962;28;20020;-69
2021/09/02 00:41:29;;;;;;;26.90;20.45;;;12.60;99.90;;;;;;2096813;28;20120;-70
2021/09/02 00:42:29;;;;;;;25.40;19.63;;;12.60;99.90;;;;;;2087856;28;20053;-70
2021/09/02 00:43:37;;;;;;;26.35;19.08;;;12.60;99.90;;;;;;2088344;28;20096;-70
2021/09/02 00:44:43;;;;;;;26.33;19.40;;;12.60;99.90;;;;;;2097178;28;20123;-70
2021/09/02 00:45:44;;;;;;;26.02;19.98;;;12.60;99.90;;;;;;2097155;28;20716;-70
2021/09/02 00:46:44;;;;;;;26.00;19.33;;;12.60;99.90;;;;;;2097173;28;20089;-70
2021/09/02 00:47:45;;;;;;;26.00;19.70;;;12.50;99.90;;;;;;2096759;28;20037;-69
2021/09/02 00:48:48;;;;;;;27.20;20.52;;;12.50;99.90;;;;;;2097028;28;20028;-69
2021/09/02 00:49:48;;;;;;;26.25;19.63;;;12.50;99.90;;;;;;2097166;28;20083;-69
2021/09/02 00:50:49;;;;;;;28.92;19.48;;;12.50;99.90;;;;;;2096674;28;20482;-69
2021/09/02 00:51:49;;;;;;;28.38;20.55;;;12.50;99.90;;;;;;2097139;28;20077;-69
2021/09/02 00:52:50;;;;;;;28.15;19.65;;;12.50;99.90;;;;;;2097061;28;20029;-69
2021/09/02 00:53:56;;;;;;;27.88;19.65;;;12.50;99.90;;;;;;2097124;28;20033;-69
2021/09/02 00:55:01;;;;;;;27.10;20.15;;;12.50;99.90;;;;;;2097098;28;20028;-69
2021/09/02 00:56:02;;;;;;;27.58;20.23;;;12.50;99.90;;;;;;2080157;28;20029;-69
2021/09/02 00:57:02;;;;;;;26.00;19.27;;;12.50;99.90;;;;;;2080131;28;20057;-69
2021/09/02 00:58:03;;;;;;;28.67;20.40;;;12.50;99.90;;;;;;2096640;28;20016;-69
2021/09/02 00:59:04;;;;;;;27.48;19.88;;;12.40;99.90;;;;;;2097142;28;20024;-69
2021/09/02 01:00:11;;;;;;;26.17;19.80;;;12.40;99.90;;;;;;2097120;28;20103;-69
2021/09/02 01:01:12;;;;;;;26.05;19.67;;;12.40;99.90;;;;;;2087685;28;20120;-69
2021/09/02 01:02:12;;;;;;;27.60;19.38;;;12.50;99.90;;;;;;2088183;28;20110;-69
2021/09/02 01:03:17;;;;;;;26.17;19.33;;;12.40;99.90;;;;;;2097018;28;20549;-69
2021/09/02 01:04:17;;;;;;;24.30;18.83;;;12.40;99.90;;;;;;2097133;28;20058;-69
2021/09/02 01:05:19;;;;;;;25.98;19.33;;;12.50;99.90;;;;;;2097055;28;20562;-69
2021/09/02 01:06:22;;;;;;;27.45;20.40;;;12.40;99.90;;;;;;2097175;28;20071;-69
2021/09/02 01:07:27;;;;;;;28.20;20.42;;;12.40;99.90;;;;;;2088298;28;20155;-69
2021/09/02 01:08:29;;;;;;;27.92;21.35;;;12.40;99.90;;;;;;2088291;28;20513;-69
2021/09/02 01:09:31;;;;;;;27.13;19.48;;;12.50;99.90;;;;;;2097084;28;20028;-69
2021/09/02 01:10:32;;;;;;;28.67;20.30;;;12.50;99.90;;;;;;2096672;28;20029;-68
2021/09/02 01:11:32;;;;;;;26.42;19.80;;;12.40;99.90;;;;;;2096929;28;20032;-68
2021/09/02 01:12:35;;;;;;;28.02;20.52;;;12.40;99.90;;;;;;2088165;28;20116;-69
2021/09/02 01:13:36;;;;;;;28.95;19.88;;;12.40;99.90;;;;;;2088373;28;20116;-69
2021/09/02 01:14:36;;;;;;;26.58;19.73;;;12.40;99.90;;;;;;2097011;28;20035;-69
2021/09/02 01:15:37;;;;;;;25.80;19.63;;;12.40;99.90;;;;;;2097046;28;20580;-69
2021/09/02 01:16:37;;;;;;;27.20;19.90;;;12.40;99.90;;;;;;2096947;28;20486;-69
2021/09/02 01:17:43;;;;;;;27.08;20.10;;;12.40;99.90;;;;;;2096897;28;20032;-69
2021/09/02 01:18:43;;;;;;;27.23;20.20;;;12.40;99.90;;;;;;2096493;28;20101;-69
2021/09/02 01:19:45;;;;;;;25.60;19.35;;;12.40;99.90;;;;;;2096919;28;20122;-69
2021/09/02 01:20:46;;;;;;;26.48;19.38;;;12.40;99.90;;;;;;2096482;28;20036;-70
2021/09/02 01:21:50;;;;;;;27.38;19.23;;;12.40;99.90;;;;;;2096890;28;20037;-69
2021/09/02 01:22:53;;;;;;;25.40;19.05;;;12.40;99.90;;;;;;2096642;28;20115;-69
2021/09/02 01:23:54;;;;;;;26.52;19.05;;;12.40;99.90;;;;;;2096884;28;20111;-69
2021/09/02 01:24:59;;;;;;;24.95;18.45;;;12.40;99.90;;;;;;2096980;28;20394;-69
2021/09/02 01:26:00;;;;;;;26.30;20.00;;;12.40;99.90;;;;;;2097090;28;20098;-69
2021/09/02 01:27:00;;;;;;;29.42;20.30;;;12.40;99.90;;;;;;2097057;28;20060;-69
2021/09/02 01:28:04;;;;;;;25.48;18.98;;;12.40;99.90;;;;;;2096531;28;20073;-69
2021/09/02 01:29:07;;;;;;;26.65;19.67;;;12.40;99.90;;;;;;2096909;28;20021;-68
2021/09/02 01:30:12;;;;;;;25.55;18.92;;;12.30;99.90;;;;;;2096832;28;20032;-69
2021/09/02 01:31:19;;;;;;;24.63;18.25;;;12.30;99.90;;;;;;2096650;28;20029;-69
2021/09/02 01:32:21;;;;;;;25.05;18.88;;;12.30;99.90;;;;;;2096809;28;20397;-69
2021/09/02 01:33:21;;;;;;;25.98;18.95;;;12.30;99.90;;;;;;2096908;28;20131;-69
2021/09/02 01:34:22;;;;;;;27.15;19.65;;;12.30;99.90;;;;;;2096926;28;20033;-68
2021/09/02 01:35:24;;;;;;;25.83;18.42;;;12.30;99.90;;;;;;2096890;28;20028;-69
2021/09/02 01:36:24;;;;;;;25.58;18.52;;;12.20;99.90;;;;;;2096937;28;20032;-69
2021/09/02 01:37:26;;;;;;;25.60;19.00;;;12.30;99.90;;;;;;2096893;28;20389;-70
2021/09/02 01:38:26;;;;;;;25.83;18.95;;;12.20;99.90;;;;;;2096417;28;20142;-69
2021/09/02 01:39:27;;;;;;;26.90;18.95;;;12.20;99.90;;;;;;2096909;28;20548;-68
2021/09/02 01:40:40;;;;;;;25.30;18.73;;;12.20;99.90;;;;;;2096502;28;20068;-69
2021/09/02 01:41:40;;;;;;;26.65;19.80;;;12.20;99.90;;;;;;2096970;28;20227;-69
2021/09/02 01:42:41;;;;;;;27.58;20.25;;;12.20;99.90;;;;;;2096814;28;20044;-69
2021/09/02 01:43:42;;;;;;;29.15;20.17;;;12.20;99.90;;;;;;2096782;28;20032;-69
2021/09/02 01:44:43;;;;;;;28.17;19.80;;;12.20;99.90;;;;;;2087724;28;20040;-69
2021/09/02 01:45:44;;;;;;;27.05;19.55;;;12.20;99.90;;;;;;2087904;28;20018;-69
2021/09/02 01:46:44;;;;;;;25.20;19.20;;;12.20;99.90;;;;;;2096794;28;20028;-69
2021/09/02 01:47:45;;;;;;;24.35;19.23;;;12.20;99.90;;;;;;2096810;28;20029;-69
2021/09/02 01:48:46;;;;;;;25.30;18.70;;;12.20;99.90;;;;;;2096860;28;20035;-69
2021/09/02 01:49:47;;;;;;;26.38;19.50;;;12.20;99.90;;;;;;2096798;28;20067;-69
2021/09/02 01:50:47;;;;;;;25.00;18.73;;;12.20;99.90;;;;;;2096432;28;20024;-69
2021/09/02 01:51:48;;;;;;;26.08;18.88;;;12.20;99.90;;;;;;2096880;28;20047;-69
2021/09/02 01:52:51;;;;;;;26.83;19.17;;;12.10;99.90;;;;;;2096856;28;20511;-69
2021/09/02 01:53:51;;;;;;;24.02;18.63;;;12.10;99.90;;;;;;2098587;28;20033;-69
2021/09/02 01:54:52;;;;;;;28.98;19.45;;;12.10;99.90;;;;;;2098575;28;20020;-68
2021/09/02 01:55:52;;;;;;;31.60;19.77;;;12.10;99.90;;;;;;2098375;28;20436;-68
2021/09/02 01:56:53;;;;;;;26.45;19.35;;;12.10;99.90;;;;;;2098604;28;20032;-69
2021/09/02 01:57:54;;;;;;;25.90;19.00;;;12.10;99.90;;;;;;2098242;28;20070;-68
2021/09/02 01:58:54;;;;;;;25.52;18.75;;;12.10;99.90;;;;;;2098589;28;20027;-69
2021/09/02 01:59:55;;;;;;;28.17;18.80;;;12.10;99.90;;;;;;2099011;28;20029;-69
2021/09/02 02:00:56;;;;;;;25.30;18.60;;;12.10;99.90;;;;;;2097893;28;20062;-68
2021/09/02 02:01:56;;;;;;;26.58;18.98;;;12.10;99.90;;;;;;2098441;28;20039;-69
2021/09/02 02:02:57;;;;;;;26.10;18.85;;;12.10;99.90;;;;;;2098569;28;20020;-68
2021/09/02 02:03:57;;;;;;;26.48;18.83;;;12.10;99.90;;;;;;2089567;28;20079;-69
2021/09/02 02:04:58;;;;;;;26.77;19.55;;;12.10;99.90;;;;;;2089444;28;20248;-69
2021/09/02 02:05:58;;;;;;;25.38;18.63;;;12.10;99.90;;;;;;2098518;28;20052;-68
2021/09/02 02:07:00;;;;;;;27.05;19.92;;;12.00;99.90;;;;;;2098484;28;20032;-69
2021/09/02 02:08:01;;;;;;;27.33;19.75;;;12.00;99.90;;;;;;2097888;28;20024;-68
2021/09/02 02:09:02;;;;;;;27.63;19.67;;;12.10;99.90;;;;;;2098438;28;20587;-69
2021/09/02 02:10:05;;;;;;;26.40;18.92;;;12.10;99.90;;;;;;2089418;28;20032;-69
2021/09/02 02:11:05;;;;;;;28.45;20.38;;;12.00;99.90;;;;;;2089502;28;20450;-69
2021/09/02 02:12:06;;;;;;;29.08;19.85;;;12.00;99.90;;;;;;2098209;28;20032;-69
2021/09/02 02:13:07;;;;;;;26.25;19.05;;;12.00;99.90;;;;;;2098071;28;20086;-69
2021/09/02 02:14:08;;;;;;;23.90;18.08;;;12.00;99.90;;;;;;2098346;28;20074;-69
2021/09/02 02:15:09;;;;;;;23.90;18.38;;;12.00;99.90;;;;;;2098353;28;20066;-69
2021/09/02 02:16:10;;;;;;;24.52;18.33;;;12.00;99.90;;;;;;2098367;28;20024;-69
2021/09/02 02:17:10;;;;;;;25.83;18.63;;;12.00;99.90;;;;;;2098286;28;20086;-69
2021/09/02 02:18:11;;;;;;;25.40;18.75;;;12.00;99.90;;;;;;2097827;28;20066;-69
2021/09/02 02:19:12;;;;;;;29.13;19.27;;;12.00;99.90;;;;;;2098250;28;20049;-69
2021/09/02 02:20:13;;;;;;;28.02;18.80;;;12.00;99.90;;;;;;2098060;28;20396;-68
2021/09/02 02:21:14;;;;;;;26.67;19.75;;;12.00;99.90;;;;;;2098062;28;20103;-68
2021/09/02 02:22:14;;;;;;;25.70;19.15;;;12.00;99.90;;;;;;2098367;28;20036;-69
2021/09/02 02:23:15;;;;;;;26.63;19.27;;;12.00;99.90;;;;;;2098405;28;20035;-68
2021/09/02 02:24:16;;;;;;;26.80;19.20;;;12.00;99.90;;;;;;2098422;28;20093;-69
2021/09/02 02:25:16;;;;;;;25.52;18.65;;;12.00;99.90;;;;;;2098457;28;20075;-69
2021/09/02 02:26:17;;;;;;;26.63;19.05;;;12.00;99.90;;;;;;2098542;28;20033;-68
2021/09/02 02:27:17;;;;;;;24.80;18.35;;;12.00;99.90;;;;;;2098353;28;20021;-69
2021/09/02 02:28:18;;;;;;;25.95;19.02;;;11.90;99.90;;;;;;2097924;28;20032;-69
2021/09/02 02:29:19;;;;;;;24.77;18.45;;;12.00;99.90;;;;;;2098292;28;20405;-68
2021/09/02 02:30:20;;;;;;;24.38;17.63;;;11.90;99.90;;;;;;2098059;28;20099;-68
2021/09/02 02:31:20;;;;;;;25.85;18.83;;;11.90;99.90;;;;;;2098198;28;20531;-69
2021/09/02 02:32:21;;;;;;;25.52;18.70;;;11.90;99.90;;;;;;2098167;28;20028;-69
2021/09/02 02:33:21;;;;;;;27.98;18.95;;;11.90;99.90;;;;;;2098052;28;20036;-68
2021/09/02 02:34:22;;;;;;;26.80;19.40;;;11.90;99.90;;;;;;2098221;28;20047;-68
2021/09/02 02:35:23;;;;;;;28.13;19.50;;;11.90;99.90;;;;;;2098246;28;20064;-69
2021/09/02 02:36:23;;;;;;;26.58;19.08;;;11.90;99.90;;;;;;2098288;28;20048;-68
2021/09/02 02:37:24;;;;;;;26.83;18.65;;;11.90;99.90;;;;;;2098235;28;20032;-68
2021/09/02 02:38:24;;;;;;;26.55;19.23;;;11.90;99.90;;;;;;2097885;28;20132;-69
2021/09/02 02:39:25;;;;;;;26.95;19.08;;;11.90;99.90;;;;;;2098121;28;20434;-69
2021/09/02 02:40:26;;;;;;;26.88;19.70;;;11.90;99.90;;;;;;2097954;28;20036;-69
2021/09/02 02:41:26;;;;;;;27.33;19.77;;;11.90;99.90;;;;;;2098157;28;20028;-69
2021/09/02 02:42:27;;;;;;;29.20;20.17;;;11.90;99.90;;;;;;2098208;28;20700;-68
2021/09/02 02:43:27;;;;;;;27.88;19.58;;;11.90;99.90;;;;;;2098111;28;20496;-68
2021/09/02 02:44:28;;;;;;;26.45;19.40;;;12.00;99.90;;;;;;2098122;28;20027;-69
2021/09/02 02:45:29;;;;;;;27.48;20.20;;;12.00;99.90;;;;;;2098315;28;20025;-68
2021/09/02 02:46:29;;;;;;;27.45;20.05;;;12.00;99.90;;;;;;2089331;28;20033;-69
2021/09/02 02:47:30;;;;;;;25.30;19.20;;;12.00;99.90;;;;;;2089289;28;20044;-68
2021/09/02 02:48:31;;;;;;;26.17;19.52;;;11.90;99.90;;;;;;2097663;28;20097;-68
2021/09/02 02:49:32;;;;;;;25.77;19.45;;;11.90;99.90;;;;;;2098037;28;20052;-69
2021/09/02 02:50:32;;;;;;;28.00;20.15;;;11.90;99.90;;;;;;2097660;28;20520;-68
2021/09/02 02:51:35;;;;;;;24.52;18.05;;;11.90;99.90;;;;;;2089195;28;20571;-69
2021/09/02 02:52:35;;;;;;;25.70;19.08;;;11.90;99.90;;;;;;2089597;28;20107;-69
2021/09/02 02:53:36;;;;;;;25.05;18.67;;;11.90;99.90;;;;;;2098088;28;20083;-69
2021/09/02 02:54:36;;;;;;;27.75;19.42;;;11.90;99.90;;;;;;2098119;28;20039;-69
2021/09/02 02:55:37;;;;;;;26.60;19.52;;;11.90;99.90;;;;;;2097859;28;20157;-69
2021/09/02 02:56:37;;;;;;;25.13;18.92;;;11.90;99.90;;;;;;2098075;28;20020;-68
2021/09/02 02:57:38;;;;;;;27.00;19.13;;;11.80;99.90;;;;;;2097971;28;20029;-68
2021/09/02 02:58:39;;;;;;;26.33;18.90;;;11.80;99.90;;;;;;2097514;28;20063;-68
2021/09/02 02:59:39;;;;;;;26.48;19.17;;;11.80;99.90;;;;;;2097994;28;20481;-68
2021/09/02 03:00:40;;;;;;;24.98;18.70;;;11.80;99.90;;;;;;2088573;28;20039;-68
2021/09/02 03:01:40;;;;;;;27.52;19.30;;;11.80;99.90;;;;;;2089133;28;20040;-68
2021/09/02 03:02:41;;;;;;;24.83;18.45;;;11.80;99.90;;;;;;2089123;28;20478;-69
2021/09/02 03:03:42;;;;;;;26.98;18.70;;;11.80;99.90;;;;;;2098118;28;20025;-68
2021/09/02 03:04:43;;;;;;;24.83;18.55;;;11.80;99.90;;;;;;2097391;28;20115;-68
2021/09/02 03:05:44;;;;;;;24.92;18.88;;;11.80;99.90;;;;;;2097798;28;20020;-69
2021/09/02 03:06:44;;;;;;;26.70;19.23;;;11.80;99.90;;;;;;2098159;28;20031;-69
2021/09/02 03:07:45;;;;;;;25.73;18.75;;;11.80;99.90;;;;;;2097855;28;20029;-69
2021/09/02 03:08:45;;;;;;;26.30;19.00;;;11.80;99.90;;;;;;2098005;28;20777;-70
2021/09/02 03:09:46;;;;;;;25.05;18.60;;;11.80;99.90;;;;;;2098084;28;20035;-70
2021/09/02 03:10:46;;;;;;;24.98;18.52;;;11.80;99.90;;;;;;2097668;28;20164;-69
2021/09/02 03:11:47;;;;;;;27.20;19.40;;;11.70;99.90;;;;;;2098022;28;20104;-70
2021/09/02 03:12:50;;;;;;;23.58;18.13;;;11.80;99.90;;;;;;2097982;28;20074;-70
2021/09/02 03:13:51;;;;;;;23.98;18.50;;;11.80;99.90;;;;;;2097822;28;20489;-70
2021/09/02 03:14:51;;;;;;;24.50;17.98;;;11.70;99.90;;;;;;2097851;28;20025;-69
2021/09/02 03:15:52;;;;;;;25.00;18.33;;;11.70;99.90;;;;;;2097842;28;20042;-70
2021/09/02 03:16:52;;;;;;;25.20;18.35;;;11.70;99.90;;;;;;2097785;28;20046;-70
2021/09/02 03:17:53;;;;;;;25.05;18.45;;;11.70;99.90;;;;;;2097311;28;20035;-70
2021/09/02 03:18:53;;;;;;;26.30;19.02;;;11.70;99.90;;;;;;2097974;28;20029;-70
2021/09/02 03:19:54;;;;;;;26.17;18.65;;;11.70;99.90;;;;;;2088941;28;20048;-70
2021/09/02 03:20:55;;;;;;;26.27;18.02;;;11.70;99.90;;;;;;2088564;28;20033;-70
2021/09/02 03:21:55;;;;;;;24.70;17.50;;;11.70;99.90;;;;;;2097883;28;20062;-69
2021/09/02 03:22:56;;;;;;;24.73;18.60;;;11.70;99.90;;;;;;2097696;28;20020;-70
2021/09/02 03:23:57;;;;;;;28.15;19.20;;;11.70;99.90;;;;;;2097766;28;20012;-70
2021/09/02 03:24:57;;;;;;;26.23;18.48;;;11.70;99.90;;;;;;2089027;28;20525;-70
2021/09/02 03:25:58;;;;;;;27.48;19.48;;;11.70;99.90;;;;;;2089070;28;20470;-70
2021/09/02 03:26:59;;;;;;;27.42;19.13;;;11.70;99.90;;;;;;2097905;28;20066;-70
2021/09/02 03:27:59;;;;;;;23.80;17.80;;;11.70;99.90;;;;;;2097294;28;20028;-70
2021/09/02 03:29:00;;;;;;;27.58;18.85;;;11.70;99.90;;;;;;2097705;28;20029;-69
2021/09/02 03:30:00;;;;;;;25.70;18.65;;;11.70;99.90;;;;;;2097773;28;20036;-70
2021/09/02 03:31:01;;;;;;;25.05;18.60;;;11.70;99.90;;;;;;2097557;28;20032;-70
2021/09/02 03:32:02;;;;;;;29.48;19.85;;;11.70;99.90;;;;;;2097585;28;20021;-69
2021/09/02 03:33:02;;;;;;;28.42;20.45;;;11.70;99.90;;;;;;2097742;28;20485;-70
2021/09/02 03:34:03;;;;;;;30.02;21.10;;;11.70;99.90;;;;;;2097770;28;20024;-69
2021/09/02 03:35:05;;;;;;;26.67;20.30;;;11.70;99.90;;;;;;2097653;28;20036;-70
2021/09/02 03:36:06;;;;;;;28.42;19.33;;;11.70;99.90;;;;;;2097798;28;20031;-70
2021/09/02 03:37:06;;;;;;;25.77;19.00;;;11.60;99.90;;;;;;2097821;28;20036;-70
2021/09/02 03:38:07;;;;;;;26.98;19.40;;;11.60;99.90;;;;;;2088431;28;20060;-70
2021/09/02 03:39:08;;;;;;;28.67;19.63;;;11.60;99.90;;;;;;2089106;28;20064;-70
2021/09/02 03:40:09;;;;;;;26.85;19.60;;;11.70;99.90;;;;;;2097769;28;20059;-70
2021/09/02 03:41:09;;;;;;;28.30;19.63;;;11.70;99.90;;;;;;2097176;28;20037;-70
2021/09/02 03:42:10;;;;;;;26.77;19.98;;;11.70;99.90;;;;;;2097656;28;20484;-70
2021/09/02 03:43:10;;;;;;;27.90;19.52;;;11.70;99.90;;;;;;2097658;28;20420;-69
2021/09/02 03:44:11;;;;;;;27.35;19.48;;;11.70;99.90;;;;;;2088730;28;20061;-70
2021/09/02 03:45:12;;;;;;;26.55;19.50;;;11.60;99.90;;;;;;2088791;28;20399;-70
2021/09/02 03:46:12;;;;;;;26.20;19.52;;;11.60;99.90;;;;;;2097433;28;20030;-69
2021/09/02 03:47:13;;;;;;;28.67;19.45;;;11.60;99.90;;;;;;2088634;28;20021;-69
2021/09/02 03:48:15;;;;;;;26.10;19.05;;;11.60;99.90;;;;;;2088388;28;20049;-70
2021/09/02 03:49:15;;;;;;;26.70;18.73;;;11.60;99.90;;;;;;2097661;28;20036;-70
2021/09/02 03:50:18;;;;;;;27.17;18.83;;;11.60;99.90;;;;;;2097481;28;20025;-70
2021/09/02 03:51:18;;;;;;;26.88;18.70;;;11.60;99.90;;;;;;2097639;28;20553;-70
2021/09/02 03:52:19;;;;;;;25.63;18.10;;;11.60;99.90;;;;;;2097762;28;20036;-70
2021/09/02 03:53:19;;;;;;;26.58;18.73;;;11.60;99.90;;;;;;2097670;28;20521;-70
2021/09/02 03:54:20;;;;;;;27.33;20.23;;;11.60;99.90;;;;;;2097524;28;20141;-70
2021/09/02 03:55:20;;;;;;;26.38;18.77;;;11.60;99.90;;;;;;2097472;28;20062;-70
2021/09/02 03:56:21;;;;;;;25.45;18.55;;;11.60;99.90;;;;;;2097726;28;20374;-70
2021/09/02 03:57:22;;;;;;;27.00;19.17;;;11.60;99.90;;;;;;2097529;28;20032;-70
2021/09/02 03:58:22;;;;;;;27.95;19.10;;;11.60;99.90;;;;;;2097160;28;20025;-69
2021/09/02 03:59:23;;;;;;;28.05;20.10;;;11.60;99.90;;;;;;2088671;28;20555;-70
2021/09/02 04:00:24;;;;;;;27.27;19.42;;;11.60;99.90;;;;;;2080249;28;20045;-69
2021/09/02 04:01:25;;;;;;;27.00;19.13;;;11.60;99.90;;;;;;2088383;28;20111;-70
2021/09/02 04:02:26;;;;;;;27.65;19.23;;;11.60;99.90;;;;;;2097714;28;20035;-69
2021/09/02 04:03:26;;;;;;;30.25;20.15;;;11.60;99.90;;;;;;2097540;28;20035;-70
2021/09/02 04:04:27;;;;;;;27.80;20.17;;;11.50;99.90;;;;;;2097537;28;20070;-70
2021/09/02 04:05:27;;;;;;;26.60;19.35;;;11.50;99.90;;;;;;2097540;28;20549;-70
2021/09/02 04:06:28;;;;;;;28.30;20.13;;;11.50;99.90;;;;;;2097373;28;20477;-70
2021/09/02 04:07:29;;;;;;;27.20;19.50;;;11.50;99.90;;;;;;2097495;28;20016;-70
2021/09/02 04:08:29;;;;;;;28.27;19.88;;;11.50;99.90;;;;;;2097015;28;20024;-70
2021/09/02 04:09:30;;;;;;;28.25;19.58;;;11.50;99.90;;;;;;2097454;28;20032;-70
2021/09/02 04:10:30;;;;;;;27.98;19.88;;;11.50;99.90;;;;;;2097042;28;20056;-70
2021/09/02 04:11:31;;;;;;;27.08;19.33;;;11.50;99.90;;;;;;2097458;28;20058;-70
2021/09/02 04:12:32;;;;;;;28.95;19.60;;;11.50;99.90;;;;;;2097421;28;20032;-70
2021/09/02 04:13:33;;;;;;;27.20;20.13;;;11.50;99.90;;;;;;2088614;28;20032;-70
2021/09/02 04:14:33;;;;;;;29.65;20.15;;;11.50;99.90;;;;;;2088650;28;20036;-69
2021/09/02 04:15:34;;;;;;;31.17;19.75;;;11.50;99.90;;;;;;2097425;28;20392;-70
2021/09/02 04:16:34;;;;;;;29.65;20.05;;;11.50;99.90;;;;;;2097454;28;20062;-70
2021/09/02 04:17:35;;;;;;;27.20;19.00;;;11.50;99.90;;;;;;2097452;28;20028;-70
2021/09/02 04:18:36;;;;;;;27.15;19.08;;;11.50;99.90;;;;;;2096937;28;20070;-70
2021/09/02 04:19:36;;;;;;;29.40;19.88;;;11.50;99.90;;;;;;2097545;28;20060;-69
2021/09/02 04:20:37;;;;;;;29.40;20.05;;;11.50;99.90;;;;;;2097154;28;20182;-70
2021/09/02 04:21:38;;;;;;;27.08;19.88;;;11.50;99.90;;;;;;2097419;28;20024;-69
2021/09/02 04:22:38;;;;;;;29.33;20.55;;;11.50;99.90;;;;;;2097473;28;20382;-70
2021/09/02 04:23:39;;;;;;;28.63;19.60;;;11.50;99.90;;;;;;2097419;28;20076;-70
2021/09/02 04:24:39;;;;;;;29.85;20.27;;;11.40;99.90;;;;;;2097369;28;20370;-70
2021/09/02 04:25:40;;;;;;;32.13;21.05;;;11.50;99.90;;;;;;2097474;28;20217;-70
2021/09/02 04:26:41;;;;;;;31.20;19.88;;;11.50;99.90;;;;;;2097486;28;20565;-70
2021/09/02 04:27:41;;;;;;;26.00;19.17;;;11.50;99.90;;;;;;2097605;28;20021;-69
2021/09/02 04:28:42;;;;;;;29.10;20.00;;;11.40;99.90;;;;;;2097014;28;20480;-70
2021/09/02 04:29:43;;;;;;;28.00;19.08;;;11.50;99.90;;;;;;2097722;28;20031;-69
2021/09/02 04:30:44;;;;;;;29.33;20.05;;;11.50;99.90;;;;;;2096945;28;20508;-69
2021/09/02 04:31:45;;;;;;;27.98;19.83;;;11.50;99.90;;;;;;2097062;28;20098;-69
2021/09/02 04:32:45;;;;;;;27.60;19.23;;;11.50;99.90;;;;;;2097336;28;20040;-69
2021/09/02 04:33:46;;;;;;;28.92;20.60;;;11.50;99.90;;;;;;2097393;28;20032;-69
2021/09/02 04:34:46;;;;;;;31.92;20.55;;;11.40;99.90;;;;;;2097244;28;20028;-69
2021/09/02 04:35:47;;;;;;;30.33;21.02;;;11.40;99.90;;;;;;2097371;28;20024;-68
2021/09/02 04:36:47;;;;;;;29.73;20.92;;;11.40;99.90;;;;;;2097342;28;20056;-68
2021/09/02 04:37:48;;;;;;;28.92;20.05;;;11.40;99.90;;;;;;2096722;28;20052;-69
2021/09/02 04:38:49;;;;;;;28.55;20.45;;;11.40;99.90;;;;;;2097196;28;20055;-69
2021/09/02 04:39:49;;;;;;;29.13;20.42;;;11.40;99.90;;;;;;2097076;28;20093;-68
2021/09/02 04:40:51;;;;;;;25.90;19.38;;;11.40;99.90;;;;;;2096614;28;20569;-69
2021/09/02 04:41:51;;;;;;;29.55;20.15;;;11.50;99.90;;;;;;2097285;28;20456;-68
2021/09/02 04:42:52;;;;;;;29.02;19.52;;;11.40;99.90;;;;;;2097237;28;20036;-68
2021/09/02 04:43:52;;;;;;;28.95;19.88;;;11.50;99.90;;;;;;2097180;28;20102;-68
2021/09/02 04:44:53;;;;;;;27.48;19.58;;;11.50;99.90;;;;;;2097082;28;20056;-68
2021/09/02 04:45:53;;;;;;;26.83;19.35;;;11.50;99.90;;;;;;2097276;28;20111;-68
2021/09/02 04:46:54;;;;;;;28.42;19.27;;;11.50;99.90;;;;;;2097220;28;20028;-68
2021/09/02 04:47:55;;;;;;;29.83;19.50;;;11.60;99.90;;;;;;2096830;28;20064;-68
2021/09/02 04:48:55;;;;;;;28.25;19.15;;;11.50;99.90;;;;;;2097203;28;20081;-69
2021/09/02 04:49:56;;;;;;;28.33;19.90;;;11.60;99.90;;;;;;2099054;28;20047;-69
2021/09/02 04:50:57;;;;;;;28.00;19.45;;;11.60;99.90;;;;;;2100111;28;20046;-69
2021/09/02 04:51:57;;;;;;;28.38;20.13;;;11.60;99.90;;;;;;2090931;28;20068;-69
2021/09/02 04:52:58;;;;;;;29.05;19.60;;;11.60;99.90;;;;;;2090659;28;20506;-69
2021/09/02 04:53:58;;;;;;;26.38;19.15;;;11.70;99.90;;;;;;2099445;28;20024;-69
2021/09/02 04:54:59;;;;;;;28.27;19.60;;;11.70;99.90;;;;;;2098569;28;20031;-69
2021/09/02 04:55:59;;;;;;;30.30;20.10;;;11.70;99.90;;;;;;2097334;28;20028;-69
2021/09/02 04:57:00;;;;;;;31.25;19.60;;;11.70;99.90;;;;;;2097357;28;20071;-69
2021/09/02 04:58:05;;;;;;;27.63;19.48;;;11.70;99.90;;;;;;2097128;28;20017;-69
2021/09/02 04:59:06;;;;;;;27.45;19.15;;;11.70;99.90;;;;;;2097597;28;20021;-69
2021/09/02 05:00:08;;;;;;;28.33;19.38;;;11.70;99.90;;;;;;2097596;28;20051;-69
2021/09/02 05:01:08;;;;;;;24.77;18.08;;;11.70;99.90;;;;;;2097202;28;20036;-70
2021/09/02 05:02:09;;;;;;;25.77;19.48;;;11.80;99.90;;;;;;2097694;28;20052;-69
2021/09/02 05:03:09;;;;;;;25.52;18.25;;;11.80;99.90;;;;;;2098032;28;20032;-69
2021/09/02 05:04:10;;;;;;;26.33;18.13;;;11.80;99.90;;;;;;2097504;28;20074;-70
2021/09/02 05:05:11;;;;;;;28.10;19.08;;;11.90;99.90;;;;;;2097342;28;20016;-69
2021/09/02 05:06:11;;;;;;;25.65;18.83;;;11.90;99.90;;;;;;2097277;28;20032;-69
2021/09/02 05:07:12;;;;;;;28.20;18.73;;;11.90;99.90;;;;;;2097093;28;20036;-68
2021/09/02 05:08:12;;;;;;;28.52;19.38;;;12.00;99.90;;;;;;2096597;28;20029;-68
2021/09/02 05:09:13;;;;;;;27.23;18.55;;;12.10;99.90;;;;;;2097129;28;20024;-69
2021/09/02 05:10:14;;;;;;;27.52;18.40;;;12.20;99.90;;;;;;2096638;28;20032;-69